createdAt,value
2022-12-23T00:00:18.984Z,2.50
2022-12-23T00:02:24.644Z,2.00
2022-12-23T00:04:32.938Z,1.73
2022-12-23T00:06:38.735Z,1.42
2022-12-23T00:08:45.073Z,2.13
2022-12-23T00:10:53.304Z,1.15
2022-12-23T00:13:11.525Z,1.40
2022-12-23T00:15:17.491Z,1.40
2022-12-23T00:17:23.400Z,1.42
2022-12-23T00:19:32.133Z,1.10
2022-12-23T00:21:37.643Z,1.63
2022-12-23T00:23:46.952Z,1.50
2022-12-23T00:25:52.624Z,1.30
2022-12-23T00:28:04.037Z,1.60
2022-12-23T00:30:12.949Z,1.75
2022-12-23T00:32:18.339Z,1.45
2022-12-23T00:34:23.802Z,1.10
2022-12-23T00:36:33.455Z,1.15
2022-12-23T00:38:51.423Z,1.15
2022-12-23T00:41:09.264Z,1.77
2022-12-23T00:43:14.598Z,0.98
2022-12-23T00:45:20.410Z,1.08
2022-12-23T00:47:38.201Z,1.23
2022-12-23T00:49:46.578Z,0.90
2022-12-23T00:51:54.925Z,1.50
2022-12-23T00:54:00.478Z,1.05
2022-12-23T00:56:05.968Z,0.95
2022-12-23T00:58:11.302Z,1.05
2022-12-23T01:00:17.694Z,0.93
2022-12-23T01:02:35.841Z,1.00
2022-12-23T01:04:53.799Z,1.23
2022-12-23T01:07:01.855Z,0.93
2022-12-23T01:09:07.508Z,1.00
2022-12-23T01:11:14.702Z,1.10
2022-12-23T01:13:20.116Z,1.33
2022-12-23T01:15:25.909Z,1.23
2022-12-23T01:17:31.486Z,0.80
2022-12-23T01:19:37.057Z,1.63
2022-12-23T01:21:42.800Z,0.90
2022-12-23T01:23:51.038Z,0.70
2022-12-23T01:26:00.460Z,0.90
2022-12-23T01:28:06.171Z,0.70
2022-12-23T01:30:13.543Z,1.00
2022-12-23T01:32:19.275Z,1.05
2022-12-23T01:34:24.915Z,1.02
2022-12-23T01:36:30.399Z,0.88
2022-12-23T01:38:36.471Z,0.80
2022-12-23T01:40:48.114Z,0.73
2022-12-23T01:42:51.087Z,0.80
2022-12-23T01:45:00.813Z,1.30
2022-12-23T01:47:08.001Z,1.00
2022-12-23T01:49:13.675Z,0.77
2022-12-23T01:51:26.483Z,0.70
2022-12-23T01:53:36.113Z,0.82
2022-12-23T01:55:49.040Z,0.82
2022-12-23T01:58:01.954Z,0.60
2022-12-23T02:00:22.342Z,1.15
2022-12-23T02:02:45.078Z,0.70
2022-12-23T02:04:51.259Z,0.83
2022-12-23T02:07:09.017Z,0.55
2022-12-23T02:09:20.000Z,0.70
2022-12-23T02:12:08.018Z,0.50
2022-12-23T02:14:47.143Z,0.60
2022-12-23T02:17:05.680Z,0.73
2022-12-23T02:19:20.587Z,0.70
2022-12-23T02:21:49.358Z,0.70
2022-12-23T02:24:39.784Z,0.70
2022-12-23T02:27:19.678Z,0.60
2022-12-23T02:30:25.191Z,0.77
2022-12-23T02:32:46.514Z,0.63
2022-12-23T02:34:59.458Z,0.77
2022-12-23T02:37:13.524Z,0.60
2022-12-23T02:39:29.478Z,0.68
2022-12-23T02:41:46.316Z,1.15
2022-12-23T02:44:03.795Z,0.70
2022-12-23T02:46:17.778Z,0.40
2022-12-23T02:48:37.201Z,0.60
2022-12-23T02:50:49.121Z,0.60
2022-12-23T02:52:57.077Z,0.75
2022-12-23T02:55:08.685Z,0.45
2022-12-23T02:57:18.308Z,0.98
2022-12-23T02:59:30.646Z,0.60
2022-12-23T03:01:39.400Z,0.80
2022-12-23T03:03:50.695Z,0.50
2022-12-23T03:05:58.721Z,0.70
2022-12-23T03:08:12.114Z,0.68
2022-12-23T03:12:53.417Z,0.68
2022-12-23T03:15:21.186Z,1.00
2022-12-23T03:17:38.526Z,0.50
2022-12-23T03:19:55.647Z,0.60
2022-12-23T03:22:10.177Z,0.50
2022-12-23T03:24:31.416Z,0.65
2022-12-23T03:26:48.557Z,0.30
2022-12-23T03:29:02.001Z,0.60
2022-12-23T03:31:14.226Z,0.65
2022-12-23T03:33:25.199Z,0.85
2022-12-23T03:35:39.792Z,0.55
2022-12-23T03:37:51.223Z,1.00
2022-12-23T03:40:03.750Z,0.70
2022-12-23T03:42:16.533Z,0.90
2022-12-23T03:44:28.131Z,0.80
2022-12-23T03:46:40.833Z,0.80
2022-12-23T03:48:51.529Z,0.80
2022-12-23T03:51:04.034Z,1.10
2022-12-23T03:53:15.399Z,0.95
2022-12-23T03:55:28.402Z,0.93
2022-12-23T03:57:43.751Z,0.63
2022-12-23T03:59:53.567Z,1.50
2022-12-23T04:02:11.586Z,1.00
2022-12-23T04:04:28.155Z,1.08
2022-12-23T04:06:43.304Z,1.17
2022-12-23T04:08:51.797Z,1.20
2022-12-23T04:10:57.560Z,1.05
2022-12-23T04:13:03.504Z,1.02
2022-12-23T04:15:13.146Z,1.20
2022-12-23T04:17:20.397Z,1.80
2022-12-23T04:19:25.929Z,2.25
2022-12-23T04:21:31.395Z,1.70
2022-12-23T04:23:40.416Z,1.85
2022-12-23T04:25:45.737Z,1.25
2022-12-23T04:27:51.089Z,1.42
2022-12-23T04:29:56.665Z,1.02
2022-12-23T04:32:02.359Z,0.65
2022-12-23T04:34:08.089Z,0.90
2022-12-23T04:36:14.397Z,0.50
2022-12-23T04:38:20.019Z,0.73
2022-12-23T04:40:28.194Z,0.32
2022-12-23T04:42:33.543Z,0.40
2022-12-23T04:44:38.954Z,0.70
2022-12-23T04:46:44.549Z,1.05
2022-12-23T04:48:50.124Z,0.40
2022-12-23T04:50:55.435Z,0.80
2022-12-23T04:53:00.970Z,0.70
2022-12-23T04:55:06.362Z,1.10
2022-12-23T04:57:14.624Z,1.20
2022-12-23T04:59:19.949Z,0.90
2022-12-23T05:01:25.387Z,0.68
2022-12-23T05:03:30.907Z,0.65
2022-12-23T05:05:36.494Z,0.63
2022-12-23T05:07:41.829Z,0.60
2022-12-23T05:09:47.189Z,0.45
2022-12-23T05:11:52.774Z,0.55
2022-12-23T05:14:01.365Z,0.50
2022-12-23T05:16:07.338Z,0.38
2022-12-23T05:18:12.658Z,0.50
2022-12-23T05:20:18.247Z,0.50
2022-12-23T05:22:23.678Z,0.60
2022-12-23T05:24:29.067Z,0.40
2022-12-23T05:26:34.700Z,0.50
2022-12-23T05:28:40.040Z,0.52
2022-12-23T05:30:48.191Z,0.60
2022-12-23T05:32:56.631Z,0.70
2022-12-23T05:35:02.232Z,0.38
2022-12-23T05:37:07.546Z,0.52
2022-12-23T05:39:13.345Z,0.80
2022-12-23T05:41:19.829Z,0.77
2022-12-23T05:43:26.020Z,0.50
2022-12-23T05:45:31.304Z,0.75
2022-12-23T05:47:40.100Z,0.60
2022-12-23T05:49:45.498Z,0.60
2022-12-23T05:51:51.143Z,4.00
2022-12-23T05:53:56.483Z,4.35
2022-12-23T05:56:02.069Z,3.15
2022-12-23T05:58:07.591Z,1.10
2022-12-23T06:00:14.518Z,1.40
2022-12-23T06:02:22.341Z,0.80
2022-12-23T06:04:30.652Z,0.60
2022-12-23T06:06:36.039Z,0.70
2022-12-23T06:08:41.433Z,0.70
2022-12-23T06:10:47.136Z,0.80
2022-12-23T06:12:52.642Z,0.73
2022-12-23T06:14:58.045Z,1.23
2022-12-23T06:17:03.455Z,0.98
2022-12-23T06:19:08.870Z,0.98
2022-12-23T06:21:16.807Z,1.48
2022-12-23T06:23:22.114Z,1.65
2022-12-23T06:25:27.782Z,1.35
2022-12-23T06:27:33.173Z,1.17
2022-12-23T06:29:38.945Z,1.30
2022-12-23T06:31:44.318Z,1.02
2022-12-23T06:33:49.695Z,1.52
2022-12-23T06:35:54.982Z,1.13
2022-12-23T06:38:05.478Z,1.60
2022-12-23T06:40:16.036Z,1.27
2022-12-23T06:42:21.394Z,1.27
2022-12-23T06:44:26.780Z,2.35
2022-12-23T06:46:32.258Z,1.63
2022-12-23T06:48:37.569Z,1.45
2022-12-23T06:50:42.943Z,1.42
2022-12-23T06:52:49.178Z,0.80
2022-12-23T06:54:57.159Z,1.38
2022-12-23T06:57:02.626Z,1.33
2022-12-23T06:59:08.263Z,0.80
2022-12-23T07:01:13.831Z,1.02
2022-12-23T07:03:19.429Z,1.60
2022-12-23T07:05:25.248Z,2.28
2022-12-23T07:07:32.384Z,2.88
2022-12-23T07:09:37.741Z,1.80
2022-12-23T07:11:45.710Z,1.80
2022-12-23T07:13:51.461Z,1.30
2022-12-23T07:15:57.312Z,3.17
2022-12-23T07:18:02.925Z,3.00
2022-12-23T07:20:14.651Z,4.25
2022-12-23T07:22:20.429Z,3.00
2022-12-23T07:24:26.775Z,1.70
2022-12-23T07:26:32.473Z,1.00
2022-12-23T07:28:47.674Z,1.02
2022-12-23T07:30:53.446Z,1.00
2022-12-23T07:32:59.002Z,0.82
2022-12-23T07:35:04.633Z,1.10
2022-12-23T07:37:10.213Z,0.90
2022-12-23T07:39:15.742Z,1.13
2022-12-23T07:41:21.599Z,1.40
2022-12-23T07:43:27.023Z,1.80
2022-12-23T07:45:35.639Z,0.98
2022-12-23T07:47:41.052Z,0.82
2022-12-23T07:49:46.408Z,1.10
2022-12-23T07:51:51.708Z,1.10
2022-12-23T07:53:57.193Z,1.15
2022-12-23T07:56:02.789Z,1.27
2022-12-23T07:58:08.535Z,1.20
2022-12-23T08:00:15.924Z,1.10
2022-12-23T08:02:25.381Z,1.05
2022-12-23T08:04:31.108Z,1.08
2022-12-23T08:06:38.928Z,1.40
2022-12-23T08:08:47.218Z,1.42
2022-12-23T08:10:52.741Z,1.23
2022-12-23T08:12:58.279Z,1.50
2022-12-23T08:15:03.705Z,1.80
2022-12-23T08:17:09.635Z,2.03
2022-12-23T08:19:17.638Z,2.97
2022-12-23T08:21:23.573Z,2.78
2022-12-23T08:23:31.258Z,4.18
2022-12-23T08:25:36.541Z,3.15
2022-12-23T08:27:41.841Z,1.40
2022-12-23T08:29:47.523Z,1.05
2022-12-23T08:31:54.356Z,1.10
2022-12-23T08:34:01.815Z,0.90
2022-12-23T08:36:16.252Z,0.88
2022-12-23T08:38:26.386Z,0.80
2022-12-23T08:40:31.944Z,0.80
2022-12-23T08:42:37.206Z,0.70
2022-12-23T08:44:42.661Z,1.10
2022-12-23T08:46:48.650Z,0.90
2022-12-23T08:48:54.450Z,0.98
2022-12-23T08:50:59.784Z,0.70
2022-12-23T08:53:08.225Z,0.88
2022-12-23T08:55:13.489Z,0.80
2022-12-23T08:57:19.268Z,1.08
2022-12-23T08:59:26.332Z,1.17
2022-12-23T09:01:36.110Z,0.90
2022-12-23T09:03:43.479Z,0.90
2022-12-23T09:05:48.881Z,1.08
2022-12-23T09:07:54.199Z,0.85
2022-12-23T09:10:02.241Z,1.52
2022-12-23T09:12:08.043Z,1.30
2022-12-23T09:14:14.486Z,1.20
2022-12-23T09:16:21.348Z,1.30
2022-12-23T09:18:26.690Z,0.88
2022-12-23T09:20:31.959Z,1.23
2022-12-23T09:22:37.933Z,1.13
2022-12-23T09:24:43.239Z,0.90
2022-12-23T09:26:51.276Z,0.70
2022-12-23T09:28:58.271Z,0.88
2022-12-23T09:31:11.490Z,1.20
2022-12-23T09:33:19.903Z,0.90
2022-12-23T09:35:25.647Z,1.00
2022-12-23T09:37:31.337Z,4.75
2022-12-23T09:39:37.070Z,7.10
2022-12-23T09:42:02.088Z,8.43
2022-12-23T09:44:36.532Z,4.80
2022-12-23T09:46:54.339Z,2.03
2022-12-23T09:49:08.095Z,1.30
2022-12-23T09:51:15.853Z,1.38
2022-12-23T09:53:25.467Z,1.02
2022-12-23T09:55:43.277Z,1.30
2022-12-23T09:58:01.499Z,0.70
2022-12-23T10:00:15.982Z,0.73
2022-12-23T10:02:36.324Z,1.00
2022-12-23T10:04:55.612Z,1.65
2022-12-23T10:07:25.515Z,1.10
2022-12-23T10:09:33.075Z,1.20
2022-12-23T10:11:45.262Z,3.13
2022-12-23T10:13:58.141Z,2.47
2022-12-23T10:16:10.015Z,2.25
2022-12-23T10:18:25.615Z,2.00
2022-12-23T10:20:42.893Z,1.48
2022-12-23T10:22:50.215Z,1.33
2022-12-23T10:25:00.599Z,1.60
2022-12-23T10:27:21.171Z,1.73
2022-12-23T10:29:34.172Z,6.40
2022-12-23T10:31:51.995Z,9.90
2022-12-23T10:34:13.348Z,7.57
2022-12-23T10:36:29.321Z,5.82
2022-12-23T10:38:55.795Z,4.93
2022-12-23T10:41:11.986Z,4.65
2022-12-23T10:43:29.785Z,2.25
2022-12-23T10:45:54.501Z,1.30
2022-12-23T10:48:18.085Z,0.85
2022-12-23T10:50:52.377Z,0.82
2022-12-23T10:53:04.210Z,1.30
2022-12-23T10:55:24.311Z,1.02
2022-12-23T10:57:33.382Z,0.68
2022-12-23T10:59:39.933Z,0.93
2022-12-23T11:01:56.790Z,0.60
2022-12-23T11:04:10.597Z,0.70
2022-12-23T11:06:16.963Z,1.23
2022-12-23T11:08:23.947Z,1.83
2022-12-23T11:10:34.322Z,1.80
2022-12-23T11:12:45.299Z,3.90
2022-12-23T11:14:57.970Z,6.15
2022-12-23T11:17:07.843Z,3.60
2022-12-23T11:19:18.955Z,1.73
2022-12-23T11:21:24.417Z,2.00
2022-12-23T11:23:35.290Z,2.60
2022-12-23T11:25:43.923Z,2.17
2022-12-23T11:27:50.081Z,7.72
2022-12-23T11:29:57.945Z,3.08
2022-12-23T11:32:18.931Z,1.40
2022-12-23T11:34:28.174Z,1.27
2022-12-23T11:36:35.408Z,1.10
2022-12-23T11:38:53.972Z,1.50
2022-12-23T11:40:59.802Z,1.23
2022-12-23T11:43:09.588Z,2.00
2022-12-23T11:45:26.887Z,2.22
2022-12-23T11:47:42.013Z,1.48
2022-12-23T11:49:53.196Z,0.93
2022-12-23T11:52:16.677Z,2.05
2022-12-23T11:56:30.031Z,4.10
2022-12-23T11:58:48.457Z,2.67
2022-12-23T12:00:58.381Z,2.05
2022-12-23T12:03:09.710Z,3.78
2022-12-23T12:05:28.509Z,3.72
2022-12-23T12:07:35.864Z,4.50
2022-12-23T12:09:46.018Z,4.28
2022-12-23T12:11:55.479Z,4.68
2022-12-23T12:14:04.657Z,6.90
2022-12-23T12:16:33.541Z,7.18
2022-12-23T12:18:45.581Z,2.88
2022-12-23T12:20:58.392Z,1.40
2022-12-23T12:23:11.873Z,1.20
2022-12-23T12:25:25.477Z,1.83
2022-12-23T12:27:40.753Z,0.90
2022-12-23T12:29:52.953Z,1.27
2022-12-23T12:32:02.640Z,2.90
2022-12-23T12:34:31.320Z,1.70
2022-12-23T12:36:49.298Z,1.90
2022-12-23T12:38:59.625Z,1.30
2022-12-23T12:41:18.703Z,1.20
2022-12-23T12:43:32.645Z,1.00
2022-12-23T12:58:29.505Z,0.88
2022-12-23T13:00:52.188Z,0.90
2022-12-23T13:03:33.581Z,1.20
2022-12-23T13:05:56.467Z,1.42
2022-12-23T13:08:25.394Z,1.40
2022-12-23T13:10:45.578Z,1.60
2022-12-23T13:13:06.695Z,1.48
2022-12-23T13:15:26.368Z,1.50
2022-12-23T13:17:40.664Z,1.70
2022-12-23T13:19:54.404Z,1.10
2022-12-23T13:22:10.588Z,1.30
2022-12-23T13:24:26.185Z,2.15
2022-12-23T13:26:40.474Z,2.90
2022-12-23T13:28:58.821Z,2.63
2022-12-23T13:31:21.280Z,3.25
2022-12-23T13:33:38.734Z,2.97
2022-12-23T13:36:06.775Z,2.58
2022-12-23T13:38:39.534Z,1.70
2022-12-23T13:41:01.201Z,1.30
2022-12-23T13:43:16.335Z,1.13
2022-12-23T13:45:24.366Z,0.93
2022-12-23T13:47:46.702Z,1.63
2022-12-23T13:50:04.005Z,2.10
2022-12-23T13:52:17.319Z,2.13
2022-12-23T13:54:40.358Z,2.90
2022-12-23T13:56:55.896Z,2.63
2022-12-23T13:59:02.392Z,2.80
2022-12-23T14:01:36.616Z,2.53
2022-12-23T14:03:45.209Z,3.30
2022-12-23T14:05:52.739Z,1.92
2022-12-23T14:07:58.813Z,1.08
2022-12-23T14:10:27.527Z,1.08
2022-12-23T14:12:41.240Z,1.30
2022-12-23T14:15:04.799Z,0.90
2022-12-23T14:17:24.174Z,0.80
2022-12-23T14:20:00.650Z,0.93
2022-12-23T14:22:32.514Z,0.93
2022-12-23T14:25:36.409Z,1.67
2022-12-23T14:28:02.893Z,1.30
2022-12-23T14:30:18.280Z,1.05
2022-12-23T14:32:29.859Z,1.30
2022-12-23T14:34:37.139Z,0.80
2022-12-23T14:37:35.302Z,0.73
2022-12-23T14:39:40.722Z,0.75
2022-12-23T14:41:57.533Z,0.77
2022-12-23T14:44:06.035Z,0.95
2022-12-23T14:47:00.092Z,1.20
2022-12-23T14:49:39.689Z,1.58
2022-12-23T14:51:50.948Z,2.00
2022-12-23T14:54:18.757Z,2.58
2022-12-23T14:56:39.117Z,3.53
2022-12-23T14:59:15.547Z,2.85
2022-12-23T15:01:29.051Z,2.45
2022-12-23T15:03:43.380Z,2.70
2022-12-23T15:05:51.154Z,1.90
2022-12-23T15:07:59.621Z,1.50
2022-12-23T15:10:09.377Z,1.55
2022-12-23T15:12:21.580Z,1.40
2022-12-23T15:14:37.453Z,1.33
2022-12-23T15:16:46.545Z,1.48
2022-12-23T15:18:59.814Z,1.30
2022-12-23T15:21:13.628Z,1.40
2022-12-23T15:23:21.823Z,1.20
2022-12-23T15:25:31.966Z,1.50
2022-12-23T15:27:39.881Z,1.30
2022-12-23T15:29:52.684Z,1.50
2022-12-23T15:32:02.941Z,1.02
2022-12-23T15:34:17.263Z,0.82
2022-12-23T15:36:35.830Z,0.82
2022-12-23T15:38:44.829Z,1.00
2022-12-23T15:41:01.831Z,1.17
2022-12-23T15:43:21.005Z,1.25
2022-12-23T15:45:39.558Z,0.88
2022-12-23T15:47:45.981Z,1.30
2022-12-23T15:49:51.457Z,1.08
2022-12-23T15:52:13.765Z,0.90
2022-12-23T15:54:35.211Z,1.33
2022-12-23T15:56:48.696Z,1.00
2022-12-23T15:58:55.186Z,0.80
2022-12-23T16:01:03.438Z,1.10
2022-12-23T16:03:15.848Z,1.02
2022-12-23T16:05:32.605Z,0.73
2022-12-23T16:07:41.148Z,1.35
2022-12-23T16:09:49.693Z,1.70
2022-12-23T16:11:59.632Z,1.63
2022-12-23T16:14:27.792Z,1.48
2022-12-23T16:16:40.160Z,1.40
2022-12-23T16:18:47.852Z,1.20
2022-12-23T16:20:57.785Z,1.00
2022-12-23T16:23:06.141Z,1.20
2022-12-23T16:25:24.913Z,1.10
2022-12-23T16:27:40.593Z,1.38
2022-12-23T16:29:48.682Z,1.85
2022-12-23T16:32:01.794Z,1.30
2022-12-23T16:34:10.642Z,1.58
2022-12-23T16:36:34.483Z,1.92
2022-12-23T16:38:40.003Z,1.17
2022-12-23T16:40:50.893Z,1.20
2022-12-23T16:58:45.873Z,1.92
2022-12-23T18:01:28.765Z,1.08
2022-12-23T18:03:34.298Z,1.30
2022-12-23T18:05:40.171Z,1.10
2022-12-23T18:07:45.634Z,1.00
2022-12-23T18:09:51.690Z,1.20
2022-12-23T18:11:57.754Z,1.10
2022-12-23T18:14:05.704Z,1.40
2022-12-23T18:16:15.647Z,1.17
2022-12-23T18:18:37.691Z,1.20
2022-12-23T18:20:54.363Z,1.73
2022-12-23T18:23:05.224Z,2.08
2022-12-23T18:25:18.901Z,1.77
2022-12-23T18:27:26.546Z,1.33
2022-12-23T18:29:31.935Z,2.63
2022-12-23T18:31:38.803Z,2.80
2022-12-23T18:33:47.435Z,2.65
2022-12-23T18:35:56.825Z,3.20
2022-12-23T18:38:03.151Z,2.65
2022-12-23T18:40:10.141Z,2.65
2022-12-23T18:42:17.754Z,3.40
2022-12-23T18:44:24.611Z,2.33
2022-12-23T18:46:29.985Z,3.15
2022-12-23T18:48:35.339Z,2.63
2022-12-23T18:50:46.852Z,1.35
2022-12-23T18:52:52.921Z,1.30
2022-12-23T18:54:58.293Z,1.15
2022-12-23T18:57:04.979Z,1.00
2022-12-23T18:59:22.747Z,1.08
2022-12-23T19:01:32.686Z,0.80
2022-12-23T19:03:38.085Z,1.00
2022-12-23T19:05:46.353Z,0.65
2022-12-23T19:14:33.270Z,0.55
2022-12-23T19:17:06.061Z,0.50
2022-12-23T19:19:12.251Z,0.63
2022-12-23T19:21:21.530Z,0.77
2022-12-23T19:23:27.256Z,0.52
2022-12-23T19:25:32.581Z,1.30
2022-12-23T19:27:38.952Z,1.08
2022-12-23T19:29:44.420Z,1.00
2022-12-23T19:31:49.769Z,0.80
2022-12-23T19:33:55.434Z,0.50
2022-12-23T19:36:00.935Z,0.80
2022-12-23T19:38:09.262Z,0.70
2022-12-23T19:40:15.461Z,0.63
2022-12-23T19:42:21.143Z,1.55
2022-12-23T19:44:27.964Z,0.90
2022-12-23T19:46:34.052Z,1.08
2022-12-23T19:48:41.522Z,1.10
2022-12-23T19:50:47.498Z,0.95
2022-12-23T19:53:00.030Z,1.10
2022-12-23T19:55:10.900Z,1.63
2022-12-23T19:57:16.478Z,1.52
2022-12-23T19:59:22.828Z,1.67
2022-12-23T20:01:30.758Z,1.30
2022-12-23T20:03:37.072Z,1.42
2022-12-23T20:05:43.359Z,1.00
2022-12-23T20:07:49.048Z,1.60
2022-12-23T20:09:55.143Z,2.08
2022-12-23T20:12:04.202Z,1.52
2022-12-23T20:14:11.359Z,1.48
2022-12-23T20:16:17.519Z,1.63
2022-12-23T20:18:25.540Z,1.33
2022-12-23T20:20:31.153Z,1.60
2022-12-23T20:22:36.663Z,2.55
2022-12-23T20:24:41.937Z,1.95
2022-12-23T20:26:47.912Z,1.50
2022-12-23T20:28:55.899Z,0.90
2022-12-23T20:31:11.000Z,1.60
2022-12-23T20:33:16.534Z,1.30
2022-12-23T20:35:22.158Z,1.30
2022-12-23T20:37:27.550Z,0.60
2022-12-23T20:39:33.254Z,0.47
2022-12-23T20:41:38.952Z,0.40
2022-12-23T20:43:56.944Z,0.50
2022-12-23T20:46:17.872Z,0.60
2022-12-23T20:48:26.883Z,0.63
2022-12-23T20:50:40.120Z,0.50
2022-12-23T20:52:56.241Z,0.50
2022-12-23T20:55:16.708Z,0.43
2022-12-23T20:57:24.978Z,0.30
2022-12-23T20:59:30.774Z,0.32
2022-12-23T21:01:41.772Z,0.30
2022-12-23T21:03:47.160Z,0.40
2022-12-23T21:05:52.924Z,0.43
2022-12-23T21:07:58.834Z,1.00
2022-12-23T21:10:04.425Z,0.50
2022-12-23T21:12:12.554Z,0.82
2022-12-23T21:14:20.206Z,0.88
2022-12-23T21:16:28.682Z,0.50
2022-12-23T21:18:39.449Z,1.25
2022-12-23T21:20:47.787Z,1.13
2022-12-23T21:22:55.479Z,0.35
2022-12-23T21:25:01.413Z,0.47
2022-12-23T21:27:09.654Z,0.40
2022-12-23T21:29:16.320Z,0.57
2022-12-23T21:31:25.522Z,0.35
2022-12-23T21:33:39.306Z,0.43
2022-12-23T21:35:44.918Z,0.50
2022-12-23T21:37:50.738Z,0.40
2022-12-23T21:39:58.965Z,0.55
2022-12-23T21:42:06.206Z,0.57
2022-12-23T21:44:13.832Z,0.45
2022-12-23T21:46:25.514Z,0.73
2022-12-23T21:48:38.652Z,0.80
2022-12-23T21:50:44.398Z,1.23
2022-12-23T21:52:49.733Z,1.10
2022-12-23T21:54:55.389Z,1.00
2022-12-23T21:57:01.131Z,0.88
2022-12-23T21:59:17.166Z,1.30
2022-12-23T22:01:24.082Z,0.88
2022-12-23T22:03:31.022Z,0.70
2022-12-23T22:05:39.347Z,0.60
2022-12-23T22:07:44.988Z,0.70
2022-12-23T22:09:50.663Z,1.10
2022-12-23T22:11:56.420Z,0.63
2022-12-23T22:14:04.023Z,0.80
2022-12-23T22:16:13.637Z,1.15
2022-12-23T22:18:19.320Z,1.08
2022-12-23T22:24:19.997Z,1.17
2022-12-23T22:33:11.122Z,0.90
2022-12-23T22:35:16.597Z,0.80
2022-12-23T22:37:22.465Z,0.60
2022-12-23T22:39:27.868Z,0.45
2022-12-23T22:41:34.560Z,0.85
2022-12-23T22:43:40.649Z,0.70
2022-12-23T22:45:46.336Z,0.50
2022-12-23T22:47:51.825Z,0.80
2022-12-23T22:50:00.198Z,0.55
2022-12-23T22:52:05.421Z,0.47
2022-12-23T22:54:11.120Z,0.70
2022-12-23T22:56:19.587Z,0.25
2022-12-23T22:58:25.231Z,0.43
2022-12-23T23:00:30.533Z,0.32
2022-12-23T23:02:35.918Z,0.25
2022-12-23T23:04:41.512Z,0.47
2022-12-23T23:06:49.821Z,0.30
2022-12-23T23:08:55.502Z,0.30
2022-12-23T23:11:03.509Z,0.40
2022-12-23T23:13:08.917Z,0.40
2022-12-23T23:15:14.927Z,0.50
2022-12-23T23:17:20.475Z,0.43
2022-12-23T23:19:25.797Z,0.35
2022-12-23T23:21:31.466Z,0.60
2022-12-23T23:23:39.595Z,0.60
2022-12-23T23:25:45.838Z,0.40
2022-12-23T23:27:51.712Z,0.88
2022-12-23T23:29:57.051Z,0.88
2022-12-23T23:32:02.663Z,0.70
2022-12-23T23:34:08.105Z,0.52
2022-12-23T23:36:13.957Z,0.57
2022-12-23T23:38:19.218Z,1.10
2022-12-23T23:40:27.787Z,0.40
2022-12-23T23:42:33.377Z,0.50
2022-12-23T23:44:38.704Z,0.52
2022-12-23T23:46:44.160Z,0.50
2022-12-23T23:48:49.617Z,0.70
2022-12-23T23:50:54.940Z,0.70
2022-12-23T23:53:00.340Z,0.82
2022-12-23T23:55:05.815Z,0.32
2022-12-23T23:57:16.613Z,0.60
2022-12-23T23:59:21.995Z,0.60
